createdAt,value
2022-10-20T00:03:55.170Z,9.97
2022-10-20T00:08:57.946Z,7.37
2022-10-20T00:14:00.421Z,6.10
2022-10-20T00:19:02.065Z,6.50
2022-10-20T00:24:03.870Z,5.87
2022-10-20T00:29:05.617Z,10.83
2022-10-20T00:34:07.310Z,7.23
2022-10-20T00:39:08.969Z,5.50
2022-10-20T00:44:46.856Z,7.27
2022-10-20T00:49:48.673Z,6.50
2022-10-20T00:54:50.309Z,5.40
2022-10-20T00:59:52.005Z,5.13
2022-10-20T01:04:53.687Z,9.10
2022-10-20T01:09:55.690Z,7.07
2022-10-20T01:15:35.041Z,10.80
2022-10-20T01:21:05.096Z,4.97
2022-10-20T01:26:28.416Z,5.40
2022-10-20T01:31:34.062Z,9.13
2022-10-20T01:36:47.735Z,7.00
2022-10-20T01:41:51.248Z,7.00
2022-10-20T01:46:52.911Z,5.70
2022-10-20T01:51:55.106Z,9.57
2022-10-20T01:57:02.020Z,7.97
2022-10-20T02:02:28.016Z,9.60
2022-10-20T02:07:30.186Z,7.70
2022-10-20T02:12:34.937Z,15.17
2022-10-20T02:17:37.194Z,13.30
2022-10-20T02:22:39.661Z,10.87
2022-10-20T02:27:43.360Z,7.50
2022-10-20T02:32:49.329Z,7.77
2022-10-20T02:37:50.998Z,10.80
2022-10-20T02:42:52.726Z,17.70
2022-10-20T02:47:54.393Z,7.70
2022-10-20T02:52:56.061Z,9.70
2022-10-20T02:57:57.767Z,7.50
2022-10-20T03:02:59.438Z,11.10
2022-10-20T03:08:01.081Z,9.60
2022-10-20T03:13:03.011Z,17.13
2022-10-20T03:18:04.878Z,12.20
2022-10-20T03:23:06.542Z,16.30
2022-10-20T03:28:08.167Z,12.70
2022-10-20T03:33:09.811Z,9.00
2022-10-20T03:38:11.480Z,10.63
2022-10-20T03:43:15.228Z,11.33
2022-10-20T03:48:16.942Z,10.07
2022-10-20T03:53:18.683Z,10.03
2022-10-20T03:58:20.415Z,9.73
2022-10-20T04:03:22.037Z,13.37
2022-10-20T04:08:23.696Z,11.00
2022-10-20T04:13:25.446Z,7.63
2022-10-20T04:18:27.113Z,9.10
2022-10-20T04:23:28.781Z,7.30
2022-10-20T04:28:30.476Z,7.63
2022-10-20T04:33:32.148Z,6.70
2022-10-20T04:38:34.074Z,7.73
2022-10-20T04:43:35.725Z,10.80
2022-10-20T04:48:37.690Z,14.80
2022-10-20T04:53:39.436Z,8.70
2022-10-20T04:58:41.059Z,5.90
2022-10-20T05:03:42.743Z,9.40
2022-10-20T05:08:46.495Z,7.77
2022-10-20T05:13:48.306Z,11.90
2022-10-20T05:18:52.226Z,7.20
2022-10-20T05:23:57.829Z,7.30
2022-10-20T05:28:59.562Z,6.20
2022-10-20T05:34:01.190Z,9.40
2022-10-20T05:39:02.906Z,7.63
2022-10-20T05:44:05.239Z,4.90
2022-10-20T05:49:07.302Z,7.73
2022-10-20T05:54:10.543Z,5.90
2022-10-20T05:59:12.242Z,9.43
2022-10-20T06:04:19.202Z,4.70
2022-10-20T06:09:21.181Z,5.87
2022-10-20T06:14:22.927Z,7.27
2022-10-20T06:19:25.045Z,7.13
2022-10-20T06:24:26.677Z,4.60
2022-10-20T06:29:28.391Z,10.00
2022-10-20T06:34:30.242Z,4.97
2022-10-20T06:39:31.965Z,4.70
2022-10-20T06:44:33.624Z,5.27
2022-10-20T06:49:35.293Z,6.80
2022-10-20T06:54:36.973Z,11.03
2022-10-20T06:59:38.767Z,6.20
2022-10-20T07:04:40.479Z,11.80
2022-10-20T07:09:42.153Z,11.13
2022-10-20T07:14:43.800Z,5.53
2022-10-20T07:19:45.494Z,8.33
2022-10-20T07:24:47.166Z,6.40
2022-10-20T07:29:48.787Z,9.30
2022-10-20T07:34:50.434Z,10.67
2022-10-20T07:39:52.111Z,10.97
2022-10-20T07:44:53.766Z,11.63
2022-10-20T07:49:55.426Z,7.30
2022-10-20T07:55:06.411Z,13.37
2022-10-20T08:00:19.278Z,8.80
2022-10-20T08:05:21.016Z,12.43
2022-10-20T08:10:22.756Z,11.53
2022-10-20T08:15:24.486Z,12.40
2022-10-20T08:20:30.625Z,11.50
2022-10-20T08:25:33.243Z,9.40
2022-10-20T08:30:37.764Z,13.13
2022-10-20T08:35:39.415Z,10.53
2022-10-20T08:40:41.837Z,11.23
2022-10-20T08:45:43.651Z,12.20
2022-10-20T08:50:46.459Z,24.43
2022-10-20T08:55:48.204Z,14.57
2022-10-20T09:00:55.417Z,19.93
2022-10-20T09:06:01.688Z,14.13
2022-10-20T09:11:03.897Z,14.50
2022-10-20T09:16:40.421Z,16.20
2022-10-20T09:21:45.038Z,15.67
2022-10-20T09:26:59.054Z,13.97
2022-10-20T09:32:10.499Z,15.90
2022-10-20T09:37:22.734Z,15.13
2022-10-20T09:42:28.760Z,18.10
2022-10-20T09:47:30.466Z,14.03
2022-10-20T09:52:35.442Z,13.37
2022-10-20T09:57:37.422Z,16.80
2022-10-20T10:02:39.330Z,15.93
2022-10-20T10:07:41.090Z,23.00
2022-10-20T10:12:51.154Z,14.63
2022-10-20T10:17:52.873Z,17.20
2022-10-20T10:23:11.982Z,13.77
2022-10-20T10:28:36.394Z,12.53
2022-10-20T10:33:38.058Z,10.47
2022-10-20T10:38:39.705Z,14.80
2022-10-20T10:44:15.728Z,15.77
2022-10-20T10:49:44.712Z,11.83
2022-10-20T10:55:21.187Z,11.40
2022-10-20T11:01:07.694Z,13.57
2022-10-20T11:06:24.092Z,10.27
2022-10-20T11:12:05.638Z,9.37
2022-10-20T11:17:29.044Z,8.60
2022-10-20T11:22:30.740Z,11.30
2022-10-20T11:27:36.752Z,8.23
2022-10-20T11:33:14.817Z,10.93
2022-10-20T11:38:21.304Z,8.90
2022-10-20T11:43:29.182Z,10.10
2022-10-20T11:48:36.314Z,10.53
2022-10-20T11:54:09.909Z,7.93
2022-10-20T11:59:30.341Z,8.67
2022-10-20T12:04:44.715Z,6.60
2022-10-20T12:09:52.541Z,8.97
2022-10-20T12:15:01.561Z,9.10
2022-10-20T12:20:38.613Z,7.10
2022-10-20T12:25:41.240Z,10.13
2022-10-20T12:30:43.943Z,5.10
2022-10-20T12:35:59.121Z,7.33
2022-10-20T12:41:00.862Z,7.00
2022-10-20T12:46:12.544Z,5.10
2022-10-20T12:51:23.568Z,3.97
2022-10-20T12:56:25.266Z,6.43
2022-10-20T13:01:28.509Z,8.80
2022-10-20T13:06:32.834Z,9.27
2022-10-20T13:11:37.697Z,7.70
2022-10-20T13:16:40.898Z,8.73
2022-10-20T13:21:46.165Z,5.20
2022-10-20T13:26:56.144Z,4.73
2022-10-20T13:32:33.837Z,4.60
2022-10-20T13:38:00.229Z,5.03
2022-10-20T13:43:39.396Z,6.87
2022-10-20T13:48:54.321Z,7.73
2022-10-20T13:53:57.482Z,12.97
2022-10-20T13:59:18.855Z,9.57
2022-10-20T14:04:34.048Z,7.77
2022-10-20T14:09:35.695Z,5.60
2022-10-20T14:14:37.373Z,7.37
2022-10-20T14:19:40.407Z,9.30
2022-10-20T14:24:45.548Z,9.40
2022-10-20T14:29:47.265Z,9.47
2022-10-20T14:34:58.112Z,8.07
2022-10-20T14:40:04.404Z,11.40
2022-10-20T14:45:06.860Z,10.77
2022-10-20T14:50:19.718Z,12.97
2022-10-20T14:55:32.226Z,10.63
2022-10-20T15:00:35.685Z,8.40
2022-10-20T15:05:42.196Z,11.80
2022-10-20T15:10:43.934Z,10.67
2022-10-20T15:15:46.215Z,9.67
2022-10-20T15:20:48.302Z,12.10
2022-10-20T15:26:03.210Z,8.00
2022-10-20T15:31:22.245Z,7.40
2022-10-20T15:36:33.274Z,17.53
2022-10-20T15:41:35.217Z,10.23
2022-10-20T15:46:36.851Z,9.93
2022-10-20T15:51:40.260Z,8.80
2022-10-20T15:56:41.940Z,9.77
2022-10-20T16:01:43.669Z,14.70
2022-10-20T16:06:45.377Z,11.40
2022-10-20T16:11:47.146Z,10.57
2022-10-20T16:16:48.805Z,11.47
2022-10-20T16:21:50.448Z,11.30
2022-10-20T16:26:52.795Z,13.80
2022-10-20T16:31:54.627Z,9.63
2022-10-20T16:36:56.309Z,17.17
2022-10-20T16:41:58.100Z,27.03
2022-10-20T16:46:59.758Z,12.60
2022-10-20T16:52:01.642Z,12.23
2022-10-20T16:57:04.037Z,15.03
2022-10-20T17:02:05.763Z,19.77
2022-10-20T17:07:08.674Z,12.07
2022-10-20T17:12:10.544Z,13.73
2022-10-20T17:17:12.185Z,12.80
2022-10-20T17:22:13.831Z,13.53
2022-10-20T17:27:15.469Z,13.40
2022-10-20T17:32:18.277Z,17.70
2022-10-20T17:37:20.227Z,12.30
2022-10-20T17:42:22.111Z,16.37
2022-10-20T17:47:24.238Z,16.37
2022-10-20T17:52:26.242Z,13.13
2022-10-20T17:57:30.001Z,9.40
2022-10-20T18:02:32.046Z,15.93
2022-10-20T18:07:33.694Z,13.60
2022-10-20T18:12:35.753Z,12.93
2022-10-20T18:17:37.739Z,15.03
2022-10-20T18:22:39.783Z,12.03
2022-10-20T18:27:41.731Z,17.83
2022-10-20T18:32:43.470Z,14.93
2022-10-20T18:37:45.105Z,20.10
2022-10-20T18:42:46.780Z,14.57
2022-10-20T18:47:48.428Z,15.00
2022-10-20T18:52:50.061Z,13.93
2022-10-20T18:57:52.151Z,12.43
2022-10-20T19:02:55.826Z,15.33
2022-10-20T19:07:59.639Z,11.00
2022-10-20T19:13:01.402Z,13.57
2022-10-20T19:18:03.157Z,10.47
2022-10-20T19:23:04.945Z,3.23
2022-10-20T19:28:06.608Z,3.50
2022-10-20T19:33:08.278Z,3.70
2022-10-20T19:38:09.959Z,2.67
2022-10-20T19:43:11.708Z,1.80
2022-10-20T19:48:13.667Z,1.77
2022-10-20T19:53:15.378Z,1.53
2022-10-20T19:58:17.466Z,1.40
2022-10-20T20:03:19.138Z,2.40
2022-10-20T20:08:20.868Z,1.33
2022-10-20T20:13:23.027Z,1.57
2022-10-20T20:18:25.062Z,1.43
2022-10-20T20:23:40.753Z,1.37
2022-10-20T20:28:48.577Z,1.90
2022-10-20T20:33:50.301Z,1.20
2022-10-20T20:38:53.808Z,1.40
2022-10-20T20:43:58.282Z,1.07
2022-10-20T20:49:00.926Z,1.30
2022-10-20T20:54:03.057Z,1.50
2022-10-20T20:59:04.851Z,1.30
2022-10-20T21:04:10.244Z,1.63
2022-10-20T21:09:12.137Z,1.30
2022-10-20T21:14:13.853Z,1.20
2022-10-20T21:19:15.522Z,1.70
2022-10-20T21:24:17.567Z,0.80
2022-10-20T21:29:19.272Z,0.63
2022-10-20T21:34:20.999Z,0.90
2022-10-20T21:39:22.841Z,0.90
2022-10-20T21:44:24.616Z,1.10
2022-10-20T21:49:26.341Z,0.63
2022-10-20T21:54:28.379Z,0.70
2022-10-20T21:59:30.300Z,0.77
2022-10-20T22:04:32.042Z,1.00
2022-10-20T22:09:33.772Z,0.90
2022-10-20T22:14:35.470Z,0.77
2022-10-20T22:19:37.179Z,0.73
2022-10-20T22:24:38.874Z,0.80
2022-10-20T22:29:40.558Z,0.70
2022-10-20T22:34:42.216Z,0.80
2022-10-20T22:39:43.892Z,0.93
2022-10-20T22:44:47.680Z,0.70
2022-10-20T22:49:49.318Z,0.83
2022-10-20T22:54:50.992Z,1.00
2022-10-20T22:59:52.743Z,0.77
2022-10-20T23:04:54.410Z,0.90
2022-10-20T23:09:56.085Z,0.80
2022-10-20T23:14:57.830Z,1.03
2022-10-20T23:19:59.534Z,0.97
2022-10-20T23:25:02.197Z,0.90
2022-10-20T23:30:04.150Z,0.70
2022-10-20T23:35:06.395Z,1.33
2022-10-20T23:40:08.490Z,0.83
2022-10-20T23:45:10.481Z,0.70
2022-10-20T23:50:12.175Z,0.70
2022-10-20T23:55:15.517Z,0.60
